sensor_id;sensor_type;location;lat;lon;timestamp;P1;durP1;ratioP1;P2;durP2;ratioP2
39102;SDS011;24847;48.218;16.414;2023-04-21T00:00:10;9.43;;;8.43;;
39102;SDS011;24847;48.218;16.414;2023-04-21T00:05:13;9.32;;;8.43;;
39102;SDS011;24847;48.218;16.414;2023-04-21T00:10:17;9.80;;;8.35;;
39102;SDS011;24847;48.218;16.414;2023-04-21T00:15:20;9.13;;;8.13;;
39102;SDS011;24847;48.218;16.414;2023-04-21T00:20:22;10.13;;;8.13;;
39102;SDS011;24847;48.218;16.414;2023-04-21T00:25:27;9.55;;;8.55;;
39102;SDS011;24847;48.218;16.414;2023-04-21T00:30:29;10.27;;;9.02;;
39102;SDS011;24847;48.218;16.414;2023-04-21T00:35:31;9.50;;;8.57;;
39102;SDS011;24847;48.218;16.414;2023-04-21T00:40:35;9.32;;;8.40;;
39102;SDS011;24847;48.218;16.414;2023-04-21T00:45:37;9.02;;;8.13;;
39102;SDS011;24847;48.218;16.414;2023-04-21T00:50:40;8.73;;;7.82;;
39102;SDS011;24847;48.218;16.414;2023-04-21T00:55:44;8.18;;;7.22;;
39102;SDS011;24847;48.218;16.414;2023-04-21T01:00:46;8.15;;;7.35;;
39102;SDS011;24847;48.218;16.414;2023-04-21T01:05:49;9.63;;;7.70;;
39102;SDS011;24847;48.218;16.414;2023-04-21T01:10:52;8.15;;;7.38;;
39102;SDS011;24847;48.218;16.414;2023-04-21T01:15:55;8.05;;;7.25;;
39102;SDS011;24847;48.218;16.414;2023-04-21T01:20:57;9.25;;;8.20;;
39102;SDS011;24847;48.218;16.414;2023-04-21T01:26:01;9.65;;;8.65;;
39102;SDS011;24847;48.218;16.414;2023-04-21T01:31:05;9.02;;;8.13;;
39102;SDS011;24847;48.218;16.414;2023-04-21T01:36:07;9.32;;;8.27;;
39102;SDS011;24847;48.218;16.414;2023-04-21T01:41:12;9.77;;;8.77;;
39102;SDS011;24847;48.218;16.414;2023-04-21T01:46:15;9.93;;;8.82;;
39102;SDS011;24847;48.218;16.414;2023-04-21T01:51:21;9.88;;;8.88;;
39102;SDS011;24847;48.218;16.414;2023-04-21T01:56:24;10.85;;;9.75;;
39102;SDS011;24847;48.218;16.414;2023-04-21T02:01:26;10.57;;;9.38;;
39102;SDS011;24847;48.218;16.414;2023-04-21T02:06:29;10.68;;;9.65;;
39102;SDS011;24847;48.218;16.414;2023-04-21T02:11:33;10.27;;;9.20;;
39102;SDS011;24847;48.218;16.414;2023-04-21T02:16:35;9.68;;;8.68;;
39102;SDS011;24847;48.218;16.414;2023-04-21T02:21:37;9.45;;;8.55;;
39102;SDS011;24847;48.218;16.414;2023-04-21T02:26:41;8.90;;;7.90;;
39102;SDS011;24847;48.218;16.414;2023-04-21T02:31:43;9.25;;;8.30;;
39102;SDS011;24847;48.218;16.414;2023-04-21T02:36:45;9.48;;;8.20;;
39102;SDS011;24847;48.218;16.414;2023-04-21T02:41:49;9.60;;;8.13;;
39102;SDS011;24847;48.218;16.414;2023-04-21T02:46:51;9.20;;;8.02;;
39102;SDS011;24847;48.218;16.414;2023-04-21T02:51:53;32.78;;;24.25;;
39102;SDS011;24847;48.218;16.414;2023-04-21T02:56:57;22.45;;;17.75;;
39102;SDS011;24847;48.218;16.414;2023-04-21T03:01:59;14.00;;;11.05;;
39102;SDS011;24847;48.218;16.414;2023-04-21T03:07:01;9.90;;;8.93;;
39102;SDS011;24847;48.218;16.414;2023-04-21T03:12:05;10.40;;;9.27;;
39102;SDS011;24847;48.218;16.414;2023-04-21T03:17:07;10.65;;;8.45;;
39102;SDS011;24847;48.218;16.414;2023-04-21T03:22:09;9.57;;;8.68;;
39102;SDS011;24847;48.218;16.414;2023-04-21T03:27:13;10.00;;;8.85;;
39102;SDS011;24847;48.218;16.414;2023-04-21T03:32:15;10.13;;;9.13;;
39102;SDS011;24847;48.218;16.414;2023-04-21T03:37:17;9.50;;;8.50;;
39102;SDS011;24847;48.218;16.414;2023-04-21T03:42:21;9.73;;;8.60;;
39102;SDS011;24847;48.218;16.414;2023-04-21T03:47:24;10.35;;;8.80;;
39102;SDS011;24847;48.218;16.414;2023-04-21T03:52:26;11.55;;;8.77;;
39102;SDS011;24847;48.218;16.414;2023-04-21T03:57:29;10.43;;;9.32;;
39102;SDS011;24847;48.218;16.414;2023-04-21T04:02:32;10.75;;;9.13;;
39102;SDS011;24847;48.218;16.414;2023-04-21T04:07:34;10.60;;;8.88;;
39102;SDS011;24847;48.218;16.414;2023-04-21T04:12:38;9.75;;;8.75;;
39102;SDS011;24847;48.218;16.414;2023-04-21T04:17:40;10.15;;;9.02;;
39102;SDS011;24847;48.218;16.414;2023-04-21T04:22:42;10.13;;;9.07;;
39102;SDS011;24847;48.218;16.414;2023-04-21T04:27:46;9.65;;;8.52;;
39102;SDS011;24847;48.218;16.414;2023-04-21T04:32:49;10.32;;;8.75;;
39102;SDS011;24847;48.218;16.414;2023-04-21T04:37:52;11.85;;;9.32;;
39102;SDS011;24847;48.218;16.414;2023-04-21T04:42:57;10.75;;;9.63;;
39102;SDS011;24847;48.218;16.414;2023-04-21T04:48:00;10.05;;;9.07;;
39102;SDS011;24847;48.218;16.414;2023-04-21T04:53:03;9.90;;;8.95;;
39102;SDS011;24847;48.218;16.414;2023-04-21T04:58:06;11.27;;;9.60;;
39102;SDS011;24847;48.218;16.414;2023-04-21T05:03:08;13.38;;;10.57;;
39102;SDS011;24847;48.218;16.414;2023-04-21T05:08:11;11.13;;;10.00;;
39102;SDS011;24847;48.218;16.414;2023-04-21T05:13:16;10.40;;;9.30;;
39102;SDS011;24847;48.218;16.414;2023-04-21T05:18:19;10.60;;;9.55;;
39102;SDS011;24847;48.218;16.414;2023-04-21T05:23:21;11.05;;;9.80;;
39102;SDS011;24847;48.218;16.414;2023-04-21T05:28:25;10.95;;;9.82;;
39102;SDS011;24847;48.218;16.414;2023-04-21T05:33:29;12.13;;;10.15;;
39102;SDS011;24847;48.218;16.414;2023-04-21T05:38:31;13.48;;;10.60;;
39102;SDS011;24847;48.218;16.414;2023-04-21T05:43:35;12.27;;;10.73;;
39102;SDS011;24847;48.218;16.414;2023-04-21T05:48:37;12.43;;;11.13;;
39102;SDS011;24847;48.218;16.414;2023-04-21T05:53:41;12.35;;;11.05;;
39102;SDS011;24847;48.218;16.414;2023-04-21T05:58:46;12.55;;;11.20;;
39102;SDS011;24847;48.218;16.414;2023-04-21T06:03:48;12.52;;;11.25;;
39102;SDS011;24847;48.218;16.414;2023-04-21T06:08:51;12.88;;;11.45;;
39102;SDS011;24847;48.218;16.414;2023-04-21T06:13:54;13.98;;;11.70;;
39102;SDS011;24847;48.218;16.414;2023-04-21T06:18:58;13.25;;;11.85;;
39102;SDS011;24847;48.218;16.414;2023-04-21T06:24:01;14.05;;;12.27;;
39102;SDS011;24847;48.218;16.414;2023-04-21T06:29:04;14.55;;;12.68;;
39102;SDS011;24847;48.218;16.414;2023-04-21T06:34:06;13.48;;;12.10;;
39102;SDS011;24847;48.218;16.414;2023-04-21T06:39:09;13.60;;;12.20;;
39102;SDS011;24847;48.218;16.414;2023-04-21T06:44:12;15.82;;;12.13;;
39102;SDS011;24847;48.218;16.414;2023-04-21T06:49:14;13.98;;;12.32;;
39102;SDS011;24847;48.218;16.414;2023-04-21T06:54:17;13.00;;;11.65;;
39102;SDS011;24847;48.218;16.414;2023-04-21T06:59:20;13.05;;;11.25;;
39102;SDS011;24847;48.218;16.414;2023-04-21T07:04:22;11.25;;;10.15;;
39102;SDS011;24847;48.218;16.414;2023-04-21T07:09:29;11.63;;;10.43;;
39102;SDS011;24847;48.218;16.414;2023-04-21T07:14:34;10.45;;;9.45;;
39102;SDS011;24847;48.218;16.414;2023-04-21T07:19:36;11.38;;;9.73;;
39102;SDS011;24847;48.218;16.414;2023-04-21T07:24:38;12.60;;;9.00;;
39102;SDS011;24847;48.218;16.414;2023-04-21T07:29:42;9.90;;;7.40;;
39102;SDS011;24847;48.218;16.414;2023-04-21T07:34:44;11.95;;;7.28;;
39102;SDS011;24847;48.218;16.414;2023-04-21T07:39:47;12.68;;;10.52;;
39102;SDS011;24847;48.218;16.414;2023-04-21T07:44:51;9.38;;;8.25;;
39102;SDS011;24847;48.218;16.414;2023-04-21T07:49:55;8.00;;;7.22;;
39102;SDS011;24847;48.218;16.414;2023-04-21T07:54:57;8.52;;;7.57;;
39102;SDS011;24847;48.218;16.414;2023-04-21T08:00:01;7.93;;;7.13;;
39102;SDS011;24847;48.218;16.414;2023-04-21T08:05:03;8.23;;;7.05;;
39102;SDS011;24847;48.218;16.414;2023-04-21T08:10:06;8.05;;;6.53;;
39102;SDS011;24847;48.218;16.414;2023-04-21T08:15:11;7.40;;;5.95;;
39102;SDS011;24847;48.218;16.414;2023-04-21T08:20:14;7.88;;;6.20;;
39102;SDS011;24847;48.218;16.414;2023-04-21T08:25:16;7.07;;;5.35;;
39102;SDS011;24847;48.218;16.414;2023-04-21T08:30:19;6.28;;;5.05;;
39102;SDS011;24847;48.218;16.414;2023-04-21T08:35:22;5.13;;;4.53;;
39102;SDS011;24847;48.218;16.414;2023-04-21T08:40:25;6.90;;;4.10;;
39102;SDS011;24847;48.218;16.414;2023-04-21T08:45:35;4.18;;;3.78;;
39102;SDS011;24847;48.218;16.414;2023-04-21T08:50:37;5.88;;;3.60;;
39102;SDS011;24847;48.218;16.414;2023-04-21T08:55:40;6.95;;;5.90;;
39102;SDS011;24847;48.218;16.414;2023-04-21T09:00:45;5.00;;;4.05;;
39102;SDS011;24847;48.218;16.414;2023-04-21T09:05:55;5.03;;;3.67;;
39102;SDS011;24847;48.218;16.414;2023-04-21T09:10:58;5.93;;;4.05;;
39102;SDS011;24847;48.218;16.414;2023-04-21T09:16:03;7.72;;;3.38;;
39102;SDS011;24847;48.218;16.414;2023-04-21T09:21:16;5.63;;;3.63;;
39102;SDS011;24847;48.218;16.414;2023-04-21T09:26:20;8.35;;;3.28;;
39102;SDS011;24847;48.218;16.414;2023-04-21T09:31:24;3.45;;;2.58;;
39102;SDS011;24847;48.218;16.414;2023-04-21T09:36:28;6.88;;;2.65;;
39102;SDS011;24847;48.218;16.414;2023-04-21T09:41:33;5.45;;;2.55;;
39102;SDS011;24847;48.218;16.414;2023-04-21T09:46:37;5.63;;;3.08;;
39102;SDS011;24847;48.218;16.414;2023-04-21T09:51:43;6.80;;;2.60;;
39102;SDS011;24847;48.218;16.414;2023-04-21T09:56:47;4.60;;;2.45;;
39102;SDS011;24847;48.218;16.414;2023-04-21T10:01:55;4.40;;;2.35;;
39102;SDS011;24847;48.218;16.414;2023-04-21T10:07:00;2.92;;;2.08;;
39102;SDS011;24847;48.218;16.414;2023-04-21T10:12:03;5.45;;;2.13;;
39102;SDS011;24847;48.218;16.414;2023-04-21T10:17:08;3.80;;;2.22;;
39102;SDS011;24847;48.218;16.414;2023-04-21T10:22:11;3.42;;;2.08;;
39102;SDS011;24847;48.218;16.414;2023-04-21T10:27:18;5.93;;;2.30;;
39102;SDS011;24847;48.218;16.414;2023-04-21T10:32:39;4.28;;;2.20;;
39102;SDS011;24847;48.218;16.414;2023-04-21T10:37:44;3.65;;;2.22;;
39102;SDS011;24847;48.218;16.414;2023-04-21T10:42:50;4.93;;;2.60;;
39102;SDS011;24847;48.218;16.414;2023-04-21T10:47:54;5.00;;;2.35;;
39102;SDS011;24847;48.218;16.414;2023-04-21T10:52:58;3.10;;;2.08;;
39102;SDS011;24847;48.218;16.414;2023-04-21T10:58:10;3.50;;;2.08;;
39102;SDS011;24847;48.218;16.414;2023-04-21T11:03:17;5.68;;;2.13;;
39102;SDS011;24847;48.218;16.414;2023-04-21T11:08:19;4.85;;;2.45;;
39102;SDS011;24847;48.218;16.414;2023-04-21T11:13:23;6.55;;;2.33;;
39102;SDS011;24847;48.218;16.414;2023-04-21T11:18:37;2.75;;;2.03;;
39102;SDS011;24847;48.218;16.414;2023-04-21T11:23:47;5.38;;;2.10;;
39102;SDS011;24847;48.218;16.414;2023-04-21T11:28:50;3.25;;;1.77;;
39102;SDS011;24847;48.218;16.414;2023-04-21T11:33:54;2.95;;;1.67;;
39102;SDS011;24847;48.218;16.414;2023-04-21T11:38:57;5.57;;;2.38;;
39102;SDS011;24847;48.218;16.414;2023-04-21T11:43:59;5.78;;;2.40;;
39102;SDS011;24847;48.218;16.414;2023-04-21T11:49:03;4.47;;;1.92;;
39102;SDS011;24847;48.218;16.414;2023-04-21T11:54:07;3.78;;;2.00;;
39102;SDS011;24847;48.218;16.414;2023-04-21T11:59:11;4.15;;;2.03;;
39102;SDS011;24847;48.218;16.414;2023-04-21T12:04:20;3.38;;;1.88;;
39102;SDS011;24847;48.218;16.414;2023-04-21T12:09:23;5.05;;;1.70;;
39102;SDS011;24847;48.218;16.414;2023-04-21T12:14:26;6.32;;;2.35;;
39102;SDS011;24847;48.218;16.414;2023-04-21T12:19:35;3.40;;;1.98;;
39102;SDS011;24847;48.218;16.414;2023-04-21T12:24:40;3.92;;;2.03;;
39102;SDS011;24847;48.218;16.414;2023-04-21T12:29:44;3.55;;;1.98;;
39102;SDS011;24847;48.218;16.414;2023-04-21T12:34:48;3.35;;;2.17;;
39102;SDS011;24847;48.218;16.414;2023-04-21T12:39:50;2.70;;;1.73;;
39102;SDS011;24847;48.218;16.414;2023-04-21T12:44:53;7.15;;;2.00;;
39102;SDS011;24847;48.218;16.414;2023-04-21T12:49:57;2.85;;;1.92;;
39102;SDS011;24847;48.218;16.414;2023-04-21T12:54:59;2.33;;;1.38;;
39102;SDS011;24847;48.218;16.414;2023-04-21T13:00:01;6.70;;;2.10;;
39102;SDS011;24847;48.218;16.414;2023-04-21T13:05:09;4.45;;;2.10;;
39102;SDS011;24847;48.218;16.414;2023-04-21T13:10:12;4.35;;;1.70;;
39102;SDS011;24847;48.218;16.414;2023-04-21T13:15:15;2.30;;;1.58;;
39102;SDS011;24847;48.218;16.414;2023-04-21T13:20:18;4.22;;;1.73;;
39102;SDS011;24847;48.218;16.414;2023-04-21T13:25:21;3.42;;;1.98;;
39102;SDS011;24847;48.218;16.414;2023-04-21T13:30:23;3.05;;;1.40;;
39102;SDS011;24847;48.218;16.414;2023-04-21T13:35:27;3.65;;;1.90;;
39102;SDS011;24847;48.218;16.414;2023-04-21T13:40:29;4.75;;;1.52;;
39102;SDS011;24847;48.218;16.414;2023-04-21T13:45:32;3.10;;;2.10;;
39102;SDS011;24847;48.218;16.414;2023-04-21T13:50:35;3.67;;;1.60;;
39102;SDS011;24847;48.218;16.414;2023-04-21T13:55:38;4.00;;;1.80;;
39102;SDS011;24847;48.218;16.414;2023-04-21T14:00:42;2.78;;;1.95;;
39102;SDS011;24847;48.218;16.414;2023-04-21T14:05:45;5.43;;;2.30;;
39102;SDS011;24847;48.218;16.414;2023-04-21T14:10:48;7.25;;;2.25;;
39102;SDS011;24847;48.218;16.414;2023-04-21T14:15:50;2.90;;;2.20;;
39102;SDS011;24847;48.218;16.414;2023-04-21T14:20:54;5.03;;;1.83;;
39102;SDS011;24847;48.218;16.414;2023-04-21T14:25:56;5.25;;;2.20;;
39102;SDS011;24847;48.218;16.414;2023-04-21T14:30:58;5.47;;;2.10;;
39102;SDS011;24847;48.218;16.414;2023-04-21T14:36:02;3.35;;;2.08;;
39102;SDS011;24847;48.218;16.414;2023-04-21T14:41:05;3.85;;;1.90;;
39102;SDS011;24847;48.218;16.414;2023-04-21T14:46:07;5.90;;;2.35;;
39102;SDS011;24847;48.218;16.414;2023-04-21T14:51:11;5.53;;;2.15;;
39102;SDS011;24847;48.218;16.414;2023-04-21T14:56:13;3.88;;;2.45;;
39102;SDS011;24847;48.218;16.414;2023-04-21T15:01:15;5.03;;;2.42;;
39102;SDS011;24847;48.218;16.414;2023-04-21T15:06:19;3.80;;;2.10;;
39102;SDS011;24847;48.218;16.414;2023-04-21T15:11:21;6.88;;;4.78;;
39102;SDS011;24847;48.218;16.414;2023-04-21T15:16:24;3.80;;;3.10;;
39102;SDS011;24847;48.218;16.414;2023-04-21T15:21:29;3.05;;;2.72;;
39102;SDS011;24847;48.218;16.414;2023-04-21T15:26:32;4.40;;;2.60;;
39102;SDS011;24847;48.218;16.414;2023-04-21T15:31:34;3.03;;;2.17;;
39102;SDS011;24847;48.218;16.414;2023-04-21T15:36:38;4.22;;;2.80;;
39102;SDS011;24847;48.218;16.414;2023-04-21T15:41:40;3.85;;;2.53;;
39102;SDS011;24847;48.218;16.414;2023-04-21T15:46:44;5.25;;;3.05;;
39102;SDS011;24847;48.218;16.414;2023-04-21T15:51:49;3.83;;;2.38;;
39102;SDS011;24847;48.218;16.414;2023-04-21T15:56:58;3.42;;;2.42;;
39102;SDS011;24847;48.218;16.414;2023-04-21T16:02:09;4.30;;;2.90;;
39102;SDS011;24847;48.218;16.414;2023-04-21T16:07:13;4.32;;;2.10;;
39102;SDS011;24847;48.218;16.414;2023-04-21T16:12:16;3.67;;;2.30;;
39102;SDS011;24847;48.218;16.414;2023-04-21T16:17:19;3.45;;;2.13;;
39102;SDS011;24847;48.218;16.414;2023-04-21T16:22:22;3.80;;;2.33;;
39102;SDS011;24847;48.218;16.414;2023-04-21T16:27:24;3.35;;;2.28;;
39102;SDS011;24847;48.218;16.414;2023-04-21T16:32:27;4.80;;;2.30;;
39102;SDS011;24847;48.218;16.414;2023-04-21T16:37:31;4.10;;;3.58;;
39102;SDS011;24847;48.218;16.414;2023-04-21T16:42:33;5.05;;;2.95;;
39102;SDS011;24847;48.218;16.414;2023-04-21T16:47:38;5.63;;;2.63;;
39102;SDS011;24847;48.218;16.414;2023-04-21T16:52:43;2.90;;;2.15;;
39102;SDS011;24847;48.218;16.414;2023-04-21T16:57:46;5.45;;;2.40;;
39102;SDS011;24847;48.218;16.414;2023-04-21T17:02:48;5.53;;;3.55;;
39102;SDS011;24847;48.218;16.414;2023-04-21T17:07:52;4.82;;;2.80;;
39102;SDS011;24847;48.218;16.414;2023-04-21T17:12:54;3.53;;;2.20;;
39102;SDS011;24847;48.218;16.414;2023-04-21T17:17:56;5.05;;;3.53;;
39102;SDS011;24847;48.218;16.414;2023-04-21T17:23:00;3.17;;;2.88;;
39102;SDS011;24847;48.218;16.414;2023-04-21T17:28:02;3.05;;;2.75;;
39102;SDS011;24847;48.218;16.414;2023-04-21T17:33:05;3.60;;;2.60;;
39102;SDS011;24847;48.218;16.414;2023-04-21T17:38:08;4.45;;;2.25;;
39102;SDS011;24847;48.218;16.414;2023-04-21T17:43:10;6.70;;;3.00;;
39102;SDS011;24847;48.218;16.414;2023-04-21T17:48:13;6.25;;;2.45;;
39102;SDS011;24847;48.218;16.414;2023-04-21T17:53:17;4.15;;;2.55;;
39102;SDS011;24847;48.218;16.414;2023-04-21T17:58:19;4.43;;;2.40;;
39102;SDS011;24847;48.218;16.414;2023-04-21T18:03:22;7.55;;;3.17;;
39102;SDS011;24847;48.218;16.414;2023-04-21T18:08:25;6.80;;;2.88;;
39102;SDS011;24847;48.218;16.414;2023-04-21T18:13:27;5.10;;;3.17;;
39102;SDS011;24847;48.218;16.414;2023-04-21T18:18:33;9.35;;;5.57;;
39102;SDS011;24847;48.218;16.414;2023-04-21T18:23:36;5.00;;;4.18;;
39102;SDS011;24847;48.218;16.414;2023-04-21T18:28:39;7.07;;;3.28;;
39102;SDS011;24847;48.218;16.414;2023-04-21T18:33:42;4.72;;;2.88;;
39102;SDS011;24847;48.218;16.414;2023-04-21T18:38:46;4.38;;;3.08;;
39102;SDS011;24847;48.218;16.414;2023-04-21T18:43:49;5.57;;;3.05;;
39102;SDS011;24847;48.218;16.414;2023-04-21T18:48:52;4.72;;;3.08;;
39102;SDS011;24847;48.218;16.414;2023-04-21T18:53:56;6.95;;;3.08;;
39102;SDS011;24847;48.218;16.414;2023-04-21T18:58:58;6.53;;;3.28;;
39102;SDS011;24847;48.218;16.414;2023-04-21T19:04:01;5.75;;;3.20;;
39102;SDS011;24847;48.218;16.414;2023-04-21T19:09:05;5.82;;;3.10;;
39102;SDS011;24847;48.218;16.414;2023-04-21T19:14:10;6.82;;;3.42;;
39102;SDS011;24847;48.218;16.414;2023-04-21T19:19:12;4.10;;;2.75;;
39102;SDS011;24847;48.218;16.414;2023-04-21T19:24:16;5.07;;;3.50;;
39102;SDS011;24847;48.218;16.414;2023-04-21T19:29:22;4.95;;;3.85;;
39102;SDS011;24847;48.218;16.414;2023-04-21T19:34:25;6.25;;;3.97;;
39102;SDS011;24847;48.218;16.414;2023-04-21T19:39:29;5.13;;;4.07;;
39102;SDS011;24847;48.218;16.414;2023-04-21T19:44:32;5.20;;;3.83;;
39102;SDS011;24847;48.218;16.414;2023-04-21T19:49:35;4.25;;;3.72;;
39102;SDS011;24847;48.218;16.414;2023-04-21T19:54:39;4.80;;;3.78;;
39102;SDS011;24847;48.218;16.414;2023-04-21T19:59:41;5.05;;;3.75;;
39102;SDS011;24847;48.218;16.414;2023-04-21T20:04:44;6.07;;;4.22;;
39102;SDS011;24847;48.218;16.414;2023-04-21T20:09:51;5.15;;;3.88;;
39102;SDS011;24847;48.218;16.414;2023-04-21T20:14:53;6.13;;;4.47;;
39102;SDS011;24847;48.218;16.414;2023-04-21T20:19:56;6.80;;;4.20;;
39102;SDS011;24847;48.218;16.414;2023-04-21T20:25:01;9.13;;;6.22;;
39102;SDS011;24847;48.218;16.414;2023-04-21T20:30:06;7.43;;;5.35;;
39102;SDS011;24847;48.218;16.414;2023-04-21T20:35:09;7.78;;;5.13;;
39102;SDS011;24847;48.218;16.414;2023-04-21T20:40:15;7.78;;;4.55;;
39102;SDS011;24847;48.218;16.414;2023-04-21T20:45:18;5.85;;;4.28;;
39102;SDS011;24847;48.218;16.414;2023-04-21T20:50:20;6.28;;;4.07;;
39102;SDS011;24847;48.218;16.414;2023-04-21T20:55:25;4.00;;;3.65;;
39102;SDS011;24847;48.218;16.414;2023-04-21T21:00:27;5.35;;;4.03;;
39102;SDS011;24847;48.218;16.414;2023-04-21T21:05:32;8.10;;;4.70;;
39102;SDS011;24847;48.218;16.414;2023-04-21T21:10:38;6.85;;;4.78;;
39102;SDS011;24847;48.218;16.414;2023-04-21T21:15:40;5.30;;;4.25;;
39102;SDS011;24847;48.218;16.414;2023-04-21T21:20:42;6.18;;;4.40;;
39102;SDS011;24847;48.218;16.414;2023-04-21T21:25:46;7.05;;;4.75;;
39102;SDS011;24847;48.218;16.414;2023-04-21T21:30:48;7.28;;;4.85;;
39102;SDS011;24847;48.218;16.414;2023-04-21T21:35:51;9.15;;;5.30;;
39102;SDS011;24847;48.218;16.414;2023-04-21T21:40:55;5.88;;;4.95;;
39102;SDS011;24847;48.218;16.414;2023-04-21T21:45:57;6.13;;;5.10;;
39102;SDS011;24847;48.218;16.414;2023-04-21T21:51:00;7.63;;;4.65;;
39102;SDS011;24847;48.218;16.414;2023-04-21T21:56:06;7.65;;;5.05;;
39102;SDS011;24847;48.218;16.414;2023-04-21T22:01:08;50.47;;;41.95;;
39102;SDS011;24847;48.218;16.414;2023-04-21T22:06:11;15.43;;;13.32;;
39102;SDS011;24847;48.218;16.414;2023-04-21T22:11:15;8.30;;;6.88;;
39102;SDS011;24847;48.218;16.414;2023-04-21T22:16:18;9.02;;;5.38;;
39102;SDS011;24847;48.218;16.414;2023-04-21T22:21:21;7.72;;;6.53;;
39102;SDS011;24847;48.218;16.414;2023-04-21T22:26:26;7.18;;;4.93;;
39102;SDS011;24847;48.218;16.414;2023-04-21T22:31:29;5.15;;;4.63;;
39102;SDS011;24847;48.218;16.414;2023-04-21T22:36:31;5.57;;;4.80;;
39102;SDS011;24847;48.218;16.414;2023-04-21T22:41:35;6.15;;;4.63;;
39102;SDS011;24847;48.218;16.414;2023-04-21T22:46:43;6.50;;;4.90;;
39102;SDS011;24847;48.218;16.414;2023-04-21T22:51:46;5.90;;;5.03;;
39102;SDS011;24847;48.218;16.414;2023-04-21T22:56:50;5.95;;;4.68;;
39102;SDS011;24847;48.218;16.414;2023-04-21T23:01:52;7.40;;;5.00;;
39102;SDS011;24847;48.218;16.414;2023-04-21T23:06:55;6.88;;;4.85;;
39102;SDS011;24847;48.218;16.414;2023-04-21T23:11:59;6.38;;;5.28;;
39102;SDS011;24847;48.218;16.414;2023-04-21T23:17:02;6.10;;;5.22;;
39102;SDS011;24847;48.218;16.414;2023-04-21T23:22:10;7.22;;;5.57;;
39102;SDS011;24847;48.218;16.414;2023-04-21T23:27:14;7.15;;;5.47;;
39102;SDS011;24847;48.218;16.414;2023-04-21T23:32:17;6.15;;;5.45;;
39102;SDS011;24847;48.218;16.414;2023-04-21T23:37:19;7.60;;;5.35;;
39102;SDS011;24847;48.218;16.414;2023-04-21T23:42:23;6.03;;;5.18;;
39102;SDS011;24847;48.218;16.414;2023-04-21T23:47:26;7.63;;;5.47;;
39102;SDS011;24847;48.218;16.414;2023-04-21T23:52:28;12.10;;;9.23;;
39102;SDS011;24847;48.218;16.414;2023-04-21T23:57:32;8.73;;;6.05;;
